Pagina principale
METAR-TAF:

METAR-TAF

Aeroporti :

Aeroporto Internazionale di Hato

Curaçao, Antille olandesi

latitudine: 12-12N, longitudine: 068-58W, altezza: 9 m

Osservazione

Il bollettino è stato emesso 41 minuti fa, alle 15:00 UTC
Vento 15 kt da est/sud-est
Temperature 29°C
Umidità 58%
Pressione 1016 hPa
Visibilità 10 km o più
Nuvoloso ad un'altezza di 2900 ft

METAR: TNCC 201500Z AUTO 11015KT 9999 BKN029 29/20 Q1016 NOSIG

Ora: 11:41 (15:41 UTC)

Previsione

Il bollettino è stato emesso 6 ore e 11 minuti fa, alle 09:30 UTC
Previsione valida dal 20 alle 12 UTC al 21 alle 12 UTC
Vento 14 kt da est/sud-est
Visibilità 10 km o più
Nubi sparse ad un'altezza di 2400 ft
Temporaneamente
dal 20 alle 15 UTC al 20 alle 20 UTC
Vento 15 kt da est/sud-est con raffiche fino a 25 kt

TAF: TNCC 200930Z 2012/2112 12014KT 9999 SCT024 TEMPO 2015/2020 12015G25KT

Osservazioni e previsioni meteorologiche di più di 4000 aeroporti (messaggi METAR e TAF).

Le stazioni disponibili sono rappresentate dai dischi gialli e rossi sulla carta.

Puntare il mouse per vedere il nome della stazione.

Clicca sopra per visualizzare le osservazioni e previsioni meteorologiche.

Per cambiare la mappa : fare clic sui pulsanti verdi con una croce nera per ingrandire, il pulsante verde con un trattino per diminuire, o sulla freccia verde per le mappe adiacenti.


METAR-TAF: